createdAt,value
2018-12-14T00:00:16.529Z,2.90
2018-12-14T00:02:42.906Z,3.00
2018-12-14T00:05:09.178Z,3.00
2018-12-14T00:07:35.429Z,3.00
2018-12-14T00:10:02.825Z,3.00
2018-12-14T00:12:29.077Z,3.00
2018-12-14T00:14:55.334Z,3.00
2018-12-14T00:17:21.589Z,3.00
2018-12-14T00:19:53.917Z,2.90
2018-12-14T00:22:20.321Z,2.90
2018-12-14T00:24:46.590Z,3.00
2018-12-14T00:27:12.947Z,3.00
2018-12-14T00:29:39.581Z,3.00
2018-12-14T00:32:05.829Z,2.90
2018-12-14T00:34:32.270Z,2.90
2018-12-14T00:36:58.534Z,2.90
2018-12-14T00:39:24.778Z,2.90
2018-12-14T00:41:52.083Z,3.00
2018-12-14T00:44:18.509Z,3.00
2018-12-14T00:46:44.766Z,2.90
2018-12-14T00:49:11.129Z,2.90
2018-12-14T00:51:37.401Z,2.90
2018-12-14T00:54:03.641Z,2.90
2018-12-14T00:56:29.905Z,2.90
2018-12-14T00:58:56.141Z,2.90
2018-12-14T01:01:22.418Z,2.80
2018-12-14T01:03:48.674Z,2.80
2018-12-14T01:06:14.937Z,2.80
2018-12-14T01:08:41.302Z,2.70
2018-12-14T01:11:07.586Z,2.80
2018-12-14T01:13:33.856Z,2.80
2018-12-14T01:16:00.108Z,2.80
2018-12-14T01:18:26.365Z,2.80
2018-12-14T01:20:52.615Z,2.80
2018-12-14T01:23:18.786Z,2.80
2018-12-14T01:25:45.038Z,2.80
2018-12-14T01:28:11.323Z,2.80
2018-12-14T01:30:37.569Z,2.70
2018-12-14T01:33:03.837Z,2.70
2018-12-14T01:35:30.081Z,2.70
2018-12-14T01:37:56.349Z,2.70
2018-12-14T01:40:22.601Z,2.70
2018-12-14T01:42:48.870Z,2.80
2018-12-14T01:45:15.125Z,2.80
2018-12-14T01:47:41.386Z,2.80
2018-12-14T01:50:07.670Z,2.80
2018-12-14T01:52:33.942Z,2.70
2018-12-14T01:55:00.290Z,2.70
2018-12-14T01:57:26.816Z,2.80
2018-12-14T01:59:53.073Z,2.80
2018-12-14T02:02:19.338Z,2.80
2018-12-14T02:04:45.616Z,2.80
2018-12-14T02:07:11.900Z,2.80
2018-12-14T02:09:38.215Z,2.80
2018-12-14T02:12:04.455Z,2.80
2018-12-14T02:14:30.721Z,2.80
2018-12-14T02:16:56.976Z,2.80
2018-12-14T02:19:23.230Z,2.80
2018-12-14T02:21:49.498Z,2.80
2018-12-14T02:24:15.756Z,2.80
2018-12-14T02:26:42.249Z,2.90
2018-12-14T02:29:08.489Z,2.80
2018-12-14T02:31:34.706Z,2.80
2018-12-14T02:34:00.957Z,2.80
2018-12-14T02:36:27.217Z,2.70
2018-12-14T02:38:53.458Z,2.70
2018-12-14T02:41:19.741Z,2.80
2018-12-14T02:43:45.999Z,2.80
2018-12-14T02:46:12.265Z,2.80
2018-12-14T02:48:38.517Z,2.80
2018-12-14T02:51:04.798Z,2.80
2018-12-14T02:53:31.035Z,2.80
2018-12-14T02:55:57.289Z,2.80
2018-12-14T02:58:23.528Z,2.80
2018-12-14T03:00:49.859Z,2.80
2018-12-14T03:03:16.153Z,2.80
2018-12-14T03:05:42.492Z,2.90
2018-12-14T03:08:08.742Z,2.90
2018-12-14T03:10:34.998Z,2.90
2018-12-14T03:13:01.277Z,2.80
2018-12-14T03:15:27.530Z,2.70
2018-12-14T03:17:53.792Z,2.80
2018-12-14T03:20:20.070Z,2.80
2018-12-14T03:22:46.325Z,2.80
2018-12-14T03:25:12.602Z,2.90
2018-12-14T03:27:38.868Z,2.80
2018-12-14T03:30:06.519Z,2.90
2018-12-14T03:32:33.211Z,2.90
2018-12-14T03:34:59.573Z,2.90
2018-12-14T03:37:25.941Z,2.80
2018-12-14T03:39:52.189Z,2.80
2018-12-14T03:42:18.489Z,2.80
2018-12-14T03:44:44.750Z,2.80
2018-12-14T03:47:11.006Z,2.80
2018-12-14T03:49:37.305Z,2.80
2018-12-14T03:52:03.562Z,2.90
2018-12-14T03:54:29.821Z,2.80
2018-12-14T03:56:56.066Z,2.90
2018-12-14T03:59:22.331Z,2.80
2018-12-14T04:01:48.578Z,2.80
2018-12-14T04:04:14.829Z,2.80
2018-12-14T04:06:41.078Z,2.70
2018-12-14T04:09:07.341Z,2.70
2018-12-14T04:11:33.597Z,2.70
2018-12-14T04:13:59.853Z,2.70
2018-12-14T04:16:26.095Z,2.80
2018-12-14T04:18:52.365Z,2.90
2018-12-14T04:21:18.607Z,2.90
2018-12-14T04:23:44.846Z,2.90
2018-12-14T04:26:11.106Z,2.80
2018-12-14T04:28:37.338Z,2.80
2018-12-14T04:31:03.757Z,2.70
2018-12-14T04:33:30.298Z,2.70
2018-12-14T04:35:56.582Z,2.70
2018-12-14T04:38:22.827Z,2.70
2018-12-14T04:40:49.118Z,2.70
2018-12-14T04:43:15.386Z,2.70
2018-12-14T04:45:41.656Z,2.70
2018-12-14T04:48:08.119Z,2.70
2018-12-14T04:50:34.494Z,2.70
2018-12-14T04:53:00.728Z,2.70
2018-12-14T04:55:26.999Z,2.70
2018-12-14T04:57:53.250Z,2.70
2018-12-14T05:00:19.534Z,2.70
2018-12-14T05:02:45.794Z,2.80
2018-12-14T05:05:12.058Z,2.80
2018-12-14T05:07:38.316Z,2.70
2018-12-14T05:10:04.897Z,2.80
2018-12-14T05:12:31.173Z,2.70
2018-12-14T05:14:57.412Z,2.70
2018-12-14T05:17:23.805Z,2.70
2018-12-14T05:19:50.041Z,2.70
2018-12-14T05:22:16.336Z,2.70
2018-12-14T05:24:42.596Z,2.70
2018-12-14T05:27:09.271Z,2.70
2018-12-14T05:29:35.568Z,2.70
2018-12-14T05:32:01.828Z,2.60
2018-12-14T05:34:28.065Z,2.70
2018-12-14T05:36:54.336Z,2.80
2018-12-14T05:39:20.625Z,2.80
2018-12-14T05:41:46.953Z,2.70
2018-12-14T05:44:13.218Z,2.70
2018-12-14T05:46:39.454Z,2.70
2018-12-14T05:49:05.838Z,2.70
2018-12-14T05:51:32.381Z,2.80
2018-12-14T05:53:58.649Z,2.80
2018-12-14T05:56:26.366Z,2.80
2018-12-14T05:58:52.612Z,2.70
2018-12-14T06:01:18.849Z,2.70
2018-12-14T06:03:45.122Z,2.70
2018-12-14T06:06:11.510Z,2.70
2018-12-14T06:08:37.789Z,2.70
2018-12-14T06:11:04.050Z,2.70
2018-12-14T06:13:30.313Z,2.60
2018-12-14T06:15:56.565Z,2.60
2018-12-14T06:18:22.861Z,2.70
2018-12-14T06:20:49.049Z,2.80
2018-12-14T06:23:15.314Z,2.70
2018-12-14T06:25:41.586Z,2.70
2018-12-14T06:28:07.888Z,2.70
2018-12-14T06:30:34.058Z,2.70
2018-12-14T06:33:00.222Z,2.70
2018-12-14T06:35:26.610Z,2.70
2018-12-14T06:37:52.840Z,2.70
2018-12-14T06:40:19.133Z,2.70
2018-12-14T06:42:45.453Z,2.80
2018-12-14T06:45:12.257Z,2.70
2018-12-14T06:47:38.797Z,2.70
2018-12-14T06:50:05.706Z,2.70
2018-12-14T06:52:31.962Z,2.70
2018-12-14T06:54:58.116Z,2.70
2018-12-14T06:57:24.939Z,2.70
2018-12-14T06:59:51.424Z,2.70
2018-12-14T07:02:17.670Z,2.70
2018-12-14T07:04:43.925Z,2.70
2018-12-14T07:07:10.204Z,2.80
2018-12-14T07:09:36.461Z,2.70
2018-12-14T07:12:02.840Z,2.80
2018-12-14T07:14:29.090Z,2.80
2018-12-14T07:16:55.380Z,2.80
2018-12-14T07:19:21.629Z,2.80
2018-12-14T07:21:47.890Z,2.80
2018-12-14T07:24:14.258Z,2.80
2018-12-14T07:26:40.878Z,2.90
2018-12-14T07:29:07.405Z,2.80
2018-12-14T07:31:33.800Z,2.90
2018-12-14T07:34:00.069Z,2.80
2018-12-14T07:36:27.252Z,2.80
2018-12-14T07:38:53.520Z,2.80
2018-12-14T07:41:19.782Z,2.90
2018-12-14T07:43:46.045Z,2.90
2018-12-14T07:46:12.305Z,2.90
2018-12-14T07:48:38.482Z,2.90
2018-12-14T07:51:04.754Z,2.80
2018-12-14T07:53:31.022Z,2.90
2018-12-14T07:55:57.272Z,2.90
2018-12-14T07:58:23.710Z,3.00
2018-12-14T08:00:49.978Z,3.00
2018-12-14T08:03:16.321Z,2.90
2018-12-14T08:05:42.705Z,2.90
2018-12-14T08:08:10.450Z,2.90
2018-12-14T08:10:36.882Z,3.00
2018-12-14T08:13:03.474Z,2.90
2018-12-14T08:15:36.886Z,2.90
2018-12-14T08:18:03.163Z,3.00
2018-12-14T08:20:29.485Z,2.90
2018-12-14T08:22:55.721Z,3.00
2018-12-14T08:25:22.002Z,3.10
2018-12-14T08:27:48.242Z,3.00
2018-12-14T08:30:14.611Z,3.00
2018-12-14T08:32:40.912Z,3.00
2018-12-14T08:35:07.219Z,3.00
2018-12-14T08:37:33.481Z,2.90
2018-12-14T08:39:59.750Z,3.00
2018-12-14T08:42:26.011Z,3.10
2018-12-14T08:44:52.261Z,3.10
2018-12-14T08:47:18.642Z,3.10
2018-12-14T08:49:44.897Z,3.10
2018-12-14T08:52:11.158Z,3.00
2018-12-14T08:54:37.465Z,3.10
2018-12-14T08:57:03.789Z,3.10
2018-12-14T08:59:30.037Z,3.00
2018-12-14T09:01:56.302Z,3.20
2018-12-14T09:04:22.558Z,3.10
2018-12-14T09:06:48.796Z,3.00
2018-12-14T09:09:15.052Z,3.00
2018-12-14T09:11:41.313Z,3.00
2018-12-14T09:14:07.574Z,3.10
2018-12-14T09:16:33.826Z,3.00
2018-12-14T09:19:00.089Z,3.00
2018-12-14T09:21:26.346Z,2.90
2018-12-14T09:23:52.597Z,3.00
2018-12-14T09:26:18.947Z,3.10
2018-12-14T09:28:45.491Z,3.10
2018-12-14T09:31:11.737Z,3.10
2018-12-14T09:33:37.993Z,3.00
2018-12-14T09:36:04.250Z,3.10
2018-12-14T09:38:30.497Z,3.10
2018-12-14T09:40:56.682Z,3.20
2018-12-14T09:43:22.930Z,3.30
2018-12-14T09:45:49.313Z,3.20
2018-12-14T09:48:15.553Z,3.30
2018-12-14T09:50:41.818Z,3.30
2018-12-14T09:53:08.057Z,3.30
2018-12-14T09:55:34.366Z,3.30
2018-12-14T09:58:00.601Z,3.30
2018-12-14T10:00:26.879Z,3.30
2018-12-14T10:02:53.125Z,3.30
2018-12-14T10:05:19.369Z,3.40
2018-12-14T10:07:47.017Z,3.40
2018-12-14T10:10:13.687Z,3.40
2018-12-14T10:12:39.950Z,3.40
2018-12-14T10:15:06.529Z,3.40
2018-12-14T10:17:32.869Z,3.40
2018-12-14T10:19:59.165Z,3.40
2018-12-14T10:22:25.449Z,3.50
2018-12-14T10:24:51.641Z,3.50
2018-12-14T10:27:17.913Z,3.60
2018-12-14T10:29:44.288Z,3.70
2018-12-14T10:32:10.559Z,3.70
2018-12-14T10:34:36.851Z,3.60
2018-12-14T10:37:03.074Z,3.70
2018-12-14T10:39:29.325Z,3.70
2018-12-14T10:41:55.606Z,3.60
2018-12-14T10:44:21.923Z,3.70
2018-12-14T10:46:48.126Z,3.80
2018-12-14T10:49:14.290Z,3.90
2018-12-14T10:51:40.885Z,3.90
2018-12-14T10:54:07.136Z,4.10
2018-12-14T10:56:33.401Z,4.10
2018-12-14T10:58:59.665Z,4.10
2018-12-14T11:01:32.181Z,4.20
2018-12-14T11:03:58.414Z,4.10
2018-12-14T11:06:24.793Z,4.10
2018-12-14T11:08:51.045Z,4.10
2018-12-14T11:11:17.310Z,4.20
2018-12-14T11:13:43.577Z,4.20
2018-12-14T11:16:09.821Z,4.10
2018-12-14T11:18:36.085Z,4.10
2018-12-14T11:21:02.338Z,4.10
2018-12-14T11:23:28.502Z,4.20
2018-12-14T11:25:54.769Z,4.20
2018-12-14T11:28:21.030Z,4.30
2018-12-14T11:30:47.285Z,4.40
2018-12-14T11:33:13.550Z,4.50
2018-12-14T11:35:39.813Z,4.40
2018-12-14T11:38:06.058Z,4.40
2018-12-14T11:40:32.342Z,4.30
2018-12-14T11:42:58.585Z,4.20
2018-12-14T11:45:24.917Z,4.20
2018-12-14T11:47:51.162Z,4.30
2018-12-14T11:50:17.435Z,4.40
2018-12-14T11:52:43.678Z,4.40
2018-12-14T11:55:09.983Z,4.40
2018-12-14T11:57:36.236Z,4.40
2018-12-14T12:00:04.458Z,4.50
2018-12-14T12:02:30.697Z,4.50
2018-12-14T12:05:03.934Z,4.60
2018-12-14T12:07:30.189Z,4.70
2018-12-14T12:09:56.456Z,4.60
2018-12-14T12:12:23.482Z,4.50
2018-12-14T12:14:49.725Z,4.60
2018-12-14T12:17:15.985Z,4.50
2018-12-14T12:19:42.237Z,4.40
2018-12-14T12:22:08.498Z,4.30
2018-12-14T12:24:34.745Z,4.30
2018-12-14T12:27:01.019Z,4.30
2018-12-14T12:29:27.261Z,4.20
2018-12-14T12:32:00.500Z,4.30
2018-12-14T12:34:27.342Z,4.30
2018-12-14T12:36:53.654Z,4.30
2018-12-14T12:39:19.890Z,4.20
2018-12-14T12:41:46.168Z,4.20
2018-12-14T12:44:12.421Z,4.10
2018-12-14T12:46:38.661Z,4.20
2018-12-14T12:49:04.913Z,4.10
2018-12-14T12:51:31.796Z,4.00
2018-12-14T12:53:57.965Z,4.00
2018-12-14T12:56:24.664Z,4.00
2018-12-14T12:58:50.997Z,4.00
2018-12-14T13:01:17.241Z,4.00
2018-12-14T13:03:43.529Z,4.00
2018-12-14T13:06:09.981Z,4.00
2018-12-14T13:08:36.254Z,3.90
2018-12-14T13:11:02.514Z,3.90
2018-12-14T13:13:28.810Z,3.80
2018-12-14T13:15:55.117Z,3.70
2018-12-14T13:18:21.371Z,3.70
2018-12-14T13:20:47.628Z,3.80
2018-12-14T13:23:13.873Z,3.70
2018-12-14T13:25:40.134Z,3.70
2018-12-14T13:28:06.714Z,3.70
2018-12-14T13:30:32.982Z,3.60
2018-12-14T13:32:59.558Z,3.60
2018-12-14T13:35:27.745Z,3.60
2018-12-14T13:37:54.011Z,3.60
2018-12-14T13:40:20.290Z,3.50
2018-12-14T13:42:46.607Z,3.50
2018-12-14T13:45:12.955Z,3.40
2018-12-14T13:47:39.308Z,3.40
2018-12-14T13:50:05.786Z,3.50
2018-12-14T13:52:32.157Z,3.40
2018-12-14T13:54:58.521Z,3.50
2018-12-14T13:57:24.786Z,3.40
2018-12-14T13:59:51.025Z,3.50
2018-12-14T14:02:17.277Z,3.40
2018-12-14T14:04:43.522Z,3.40
2018-12-14T14:07:09.772Z,3.40
2018-12-14T14:09:36.212Z,3.40
2018-12-14T14:12:02.582Z,3.50
2018-12-14T14:14:28.826Z,3.40
2018-12-14T14:16:55.401Z,3.30
2018-12-14T14:19:22.915Z,3.40
2018-12-14T14:21:49.310Z,3.30
2018-12-14T14:24:15.582Z,3.40
2018-12-14T14:26:44.556Z,3.30
2018-12-14T14:29:10.025Z,3.30
2018-12-14T14:31:36.345Z,3.30
2018-12-14T14:34:03.142Z,3.30
2018-12-14T14:36:36.395Z,3.30
2018-12-14T14:39:05.385Z,3.40
2018-12-14T14:41:32.681Z,3.40
2018-12-14T14:43:58.945Z,3.40
2018-12-14T14:46:25.318Z,3.40
2018-12-14T14:48:51.561Z,3.30
2018-12-14T14:51:17.971Z,3.30
2018-12-14T14:53:44.269Z,3.30
2018-12-14T14:56:10.796Z,3.20
2018-12-14T14:58:37.037Z,3.30
2018-12-14T15:01:03.350Z,3.30
2018-12-14T15:03:29.821Z,3.20
2018-12-14T15:05:56.128Z,3.20
2018-12-14T15:08:22.378Z,3.20
2018-12-14T15:10:48.702Z,3.30
2018-12-14T15:13:14.951Z,3.20
2018-12-14T15:15:41.232Z,3.20
2018-12-14T15:18:07.383Z,3.20
2018-12-14T15:20:34.074Z,3.20
2018-12-14T15:23:00.661Z,3.20
2018-12-14T15:25:26.969Z,3.10
2018-12-14T15:27:53.330Z,3.20
2018-12-14T15:30:19.737Z,3.10
2018-12-14T15:32:46.085Z,3.20
2018-12-14T15:35:12.345Z,3.10
2018-12-14T15:37:38.604Z,3.10
2018-12-14T15:40:07.076Z,3.10
2018-12-14T15:42:33.349Z,3.10
2018-12-14T15:44:59.597Z,3.20
2018-12-14T15:47:25.981Z,3.20
2018-12-14T15:49:52.257Z,3.10
2018-12-14T15:52:18.538Z,3.20
2018-12-14T15:54:44.786Z,3.20
2018-12-14T15:57:11.025Z,3.20
2018-12-14T15:59:37.357Z,3.10
2018-12-14T16:02:03.734Z,3.20
2018-12-14T16:04:29.989Z,3.20
2018-12-14T16:06:56.249Z,3.00
2018-12-14T16:09:22.653Z,3.10
2018-12-14T16:11:48.977Z,3.20
2018-12-14T16:14:15.257Z,3.10
2018-12-14T16:16:41.605Z,3.00
2018-12-14T16:19:07.884Z,3.10
2018-12-14T16:21:34.143Z,3.10
2018-12-14T16:24:00.319Z,3.10
2018-12-14T16:26:26.818Z,3.10
2018-12-14T16:28:53.077Z,3.00
2018-12-14T16:31:19.342Z,3.00
2018-12-14T16:33:45.589Z,3.00
2018-12-14T16:36:11.856Z,3.10
2018-12-14T16:38:38.125Z,3.00
2018-12-14T16:41:04.394Z,3.00
2018-12-14T16:43:30.765Z,3.00
2018-12-14T16:45:57.034Z,3.00
2018-12-14T16:48:23.293Z,3.10
2018-12-14T16:50:49.590Z,3.10
2018-12-14T16:53:15.916Z,3.10
2018-12-14T16:55:42.285Z,3.10
2018-12-14T16:58:08.701Z,3.10
2018-12-14T17:00:34.954Z,3.10
2018-12-14T17:03:01.237Z,3.00
2018-12-14T17:05:27.582Z,3.10
2018-12-14T17:07:53.859Z,3.00
2018-12-14T17:10:20.465Z,3.00
2018-12-14T17:12:47.661Z,3.00
2018-12-14T17:15:14.025Z,3.00
2018-12-14T17:17:40.300Z,3.00
2018-12-14T17:20:13.598Z,3.00
2018-12-14T17:22:39.845Z,3.00
2018-12-14T17:25:06.225Z,3.00
2018-12-14T17:27:32.486Z,3.00
2018-12-14T17:29:58.750Z,3.00
2018-12-14T17:32:24.994Z,3.10
2018-12-14T17:34:51.270Z,3.00
2018-12-14T17:37:17.522Z,3.00
2018-12-14T17:39:43.861Z,3.00
2018-12-14T17:42:10.123Z,3.00
2018-12-14T17:44:36.394Z,2.90
2018-12-14T17:47:02.702Z,3.00
2018-12-14T17:49:29.297Z,2.90
2018-12-14T17:51:55.517Z,3.00
2018-12-14T17:54:21.801Z,3.00
2018-12-14T17:56:48.041Z,3.00
2018-12-14T17:59:14.417Z,3.00
2018-12-14T18:01:40.962Z,2.90
2018-12-14T18:04:07.218Z,3.00
2018-12-14T18:06:33.599Z,3.00
2018-12-14T18:08:59.838Z,2.90
2018-12-14T18:11:28.974Z,2.90
2018-12-14T18:13:55.258Z,2.90
2018-12-14T18:16:21.841Z,3.00
2018-12-14T18:18:48.085Z,3.00
2018-12-14T18:21:16.615Z,3.10
2018-12-14T18:23:42.920Z,3.00
2018-12-14T18:26:09.086Z,2.90
2018-12-14T18:28:35.234Z,2.90
2018-12-14T18:31:01.494Z,2.90
2018-12-14T18:33:27.759Z,2.90
2018-12-14T18:35:54.018Z,2.90
2018-12-14T18:38:27.334Z,3.00
2018-12-14T18:40:53.622Z,3.00
2018-12-14T18:43:19.901Z,2.90
2018-12-14T18:45:46.126Z,2.90
2018-12-14T18:48:12.383Z,3.00
2018-12-14T18:50:38.698Z,3.00
2018-12-14T18:53:04.963Z,3.00
2018-12-14T18:55:31.196Z,2.90
2018-12-14T18:57:57.458Z,2.90
2018-12-14T19:00:23.710Z,2.90
2018-12-14T19:02:49.948Z,2.90
2018-12-14T19:05:16.216Z,2.90
2018-12-14T19:07:42.563Z,2.90
2018-12-14T19:10:08.865Z,2.90
2018-12-14T19:12:35.506Z,3.00
2018-12-14T19:15:02.442Z,2.90
2018-12-14T19:17:29.893Z,3.00
2018-12-14T19:19:56.357Z,3.00
2018-12-14T19:22:22.602Z,3.00
2018-12-14T19:24:48.870Z,3.00
2018-12-14T19:27:15.105Z,3.00
2018-12-14T19:29:41.358Z,3.00
2018-12-14T19:32:07.669Z,3.00
2018-12-14T19:34:33.938Z,3.00
2018-12-14T19:37:00.205Z,3.00
2018-12-14T19:39:26.677Z,3.00
2018-12-14T19:41:53.183Z,2.90
2018-12-14T19:44:19.426Z,2.90
2018-12-14T19:46:45.822Z,2.90
2018-12-14T19:49:12.074Z,2.90
2018-12-14T19:51:38.331Z,3.00
2018-12-14T19:54:04.609Z,3.00
2018-12-14T19:56:31.101Z,3.00
2018-12-14T19:58:57.349Z,2.90
2018-12-14T20:01:23.621Z,2.90
2018-12-14T20:03:49.900Z,2.90
2018-12-14T20:06:16.161Z,2.90
2018-12-14T20:08:42.530Z,2.90
2018-12-14T20:11:08.771Z,3.00
2018-12-14T20:13:35.038Z,3.00
2018-12-14T20:16:01.297Z,3.00
2018-12-14T20:18:27.556Z,3.00
2018-12-14T20:20:53.961Z,2.90
2018-12-14T20:23:20.205Z,2.90
2018-12-14T20:25:46.632Z,2.90
2018-12-14T20:28:12.892Z,2.90
2018-12-14T20:30:39.159Z,2.90
2018-12-14T20:33:05.433Z,2.80
2018-12-14T20:35:32.518Z,2.70
2018-12-14T20:37:59.189Z,2.80
2018-12-14T20:40:25.490Z,2.70
2018-12-14T20:42:51.738Z,2.70
2018-12-14T20:45:18.001Z,2.80
2018-12-14T20:47:44.257Z,2.70
2018-12-14T20:50:10.692Z,2.80
2018-12-14T20:52:37.103Z,2.90
2018-12-14T20:55:05.001Z,2.80
2018-12-14T20:57:31.237Z,2.90
2018-12-14T20:59:57.509Z,3.00
2018-12-14T21:02:23.782Z,3.00
2018-12-14T21:04:50.045Z,2.90
2018-12-14T21:07:16.314Z,2.80
2018-12-14T21:09:42.577Z,2.90
2018-12-14T21:12:08.818Z,2.90
2018-12-14T21:14:35.414Z,2.80
2018-12-14T21:17:01.681Z,2.80
2018-12-14T21:19:27.962Z,2.90
2018-12-14T21:21:54.253Z,2.80
2018-12-14T21:24:20.581Z,2.80
2018-12-14T21:26:46.807Z,2.80
2018-12-14T21:29:16.003Z,2.80
2018-12-14T21:31:41.258Z,2.80
2018-12-14T21:34:07.560Z,2.80
2018-12-14T21:36:33.826Z,2.70
2018-12-14T21:39:00.122Z,2.80
2018-12-14T21:41:26.401Z,2.70
2018-12-14T21:43:52.657Z,2.70
2018-12-14T21:46:18.918Z,2.80
2018-12-14T21:48:45.204Z,2.80
2018-12-14T21:51:11.386Z,2.70
2018-12-14T21:53:37.640Z,2.70
2018-12-14T21:56:04.012Z,2.70
2018-12-14T21:58:30.381Z,2.80
2018-12-14T22:00:56.650Z,2.80
2018-12-14T22:03:23.017Z,2.70
2018-12-14T22:05:49.273Z,2.80
2018-12-14T22:08:15.513Z,2.90
2018-12-14T22:10:41.789Z,2.80
2018-12-14T22:13:08.034Z,2.90
2018-12-14T22:15:34.517Z,2.80
2018-12-14T22:18:00.931Z,2.80
2018-12-14T22:20:27.194Z,2.80
2018-12-14T22:22:53.450Z,2.80
2018-12-14T22:25:19.713Z,2.80
2018-12-14T22:27:46.117Z,2.80
2018-12-14T22:30:19.386Z,2.80
2018-12-14T22:32:45.656Z,2.70
2018-12-14T22:35:11.921Z,2.70
2018-12-14T22:37:38.190Z,2.70
2018-12-14T22:40:05.733Z,2.70
2018-12-14T22:42:32.105Z,2.70
2018-12-14T22:44:58.354Z,2.70
2018-12-14T22:47:24.630Z,2.70
2018-12-14T22:49:51.543Z,2.60
2018-12-14T22:52:17.858Z,2.60
2018-12-14T22:54:50.973Z,2.70
2018-12-14T22:57:17.250Z,2.60
2018-12-14T22:59:43.497Z,2.70
2018-12-14T23:02:09.644Z,2.70
2018-12-14T23:04:36.029Z,2.60
2018-12-14T23:07:02.298Z,2.60
2018-12-14T23:09:28.556Z,2.60
2018-12-14T23:11:54.801Z,2.60
2018-12-14T23:14:21.062Z,2.60
2018-12-14T23:16:52.228Z,2.60
2018-12-14T23:19:15.598Z,2.60
2018-12-14T23:21:41.851Z,2.60
2018-12-14T23:24:08.116Z,2.60
2018-12-14T23:26:34.353Z,2.60
2018-12-14T23:29:00.627Z,2.60
2018-12-14T23:31:26.869Z,2.60
2018-12-14T23:33:53.133Z,2.60
2018-12-14T23:36:19.626Z,2.50
2018-12-14T23:38:45.907Z,2.50
2018-12-14T23:41:12.266Z,2.50
2018-12-14T23:43:38.514Z,2.50
2018-12-14T23:46:04.781Z,2.50
2018-12-14T23:48:31.063Z,2.50
2018-12-14T23:50:57.332Z,2.50
2018-12-14T23:53:23.590Z,2.60
2018-12-14T23:55:49.866Z,2.60
2018-12-14T23:58:16.114Z,2.50
